Time;durP1;ratioP1;P1;durP2;ratioP2;P2;SDS_P1;SDS_P2;PMS_P1;PMS_P2;Temp;Humidity;BMP_temperature;BMP_pressure;BME280_temperature;BME280_humidity;BME280_pressure;Samples;Min_cycle;Max_cycle;Signal;HPM_P1;HPM_P2
2022/05/31 00:01:34;;;;;;;;;;;;;;;;;;5009235;28;20370;-61
2022/05/31 00:04:00;;;;;;;;;;;;;;;;;;5006388;28;19953;-62
2022/05/31 00:06:25;;;;;;;;;;;;;;;;;;5015582;28;19921;-59
2022/05/31 00:08:52;;;;;;;;;;;;;;;;;;5009062;28;19956;-59
2022/05/31 00:11:18;;;;;;;;;;;;;;;;;;5009179;28;19917;-60
2022/05/31 00:13:43;;;;;;;;;;;;;;;;;;5010926;28;19918;-60
2022/05/31 00:16:10;;;;;;;;;;;;;;;;;;5004270;28;19928;-62
2022/05/31 00:18:35;;;;;;;;;;;;;;;;;;5012701;28;19922;-61
2022/05/31 00:21:00;;;;;;;;;;;;;;;;;;5003364;28;19944;-60
2022/05/31 00:23:25;;;;;;;;;;;;;;;;;;5005912;28;20611;-63
2022/05/31 00:25:50;;;;;;;;;;;;;;;;;;5012739;28;20012;-60
2022/05/31 00:28:15;;;;;;;;;;;;;;;;;;5009961;28;19921;-60
2022/05/31 00:30:41;;;;;;;;;;;;;;;;;;5015357;28;19924;-61
2022/05/31 00:33:06;;;;;;;;;;;;;;;;;;5007859;28;19929;-60
2022/05/31 00:35:31;;;;;;;;;;;;;;;;;;5013618;28;20289;-60
2022/05/31 00:37:56;;;;;;;;;;;;;;;;;;5017012;28;19925;-60
2022/05/31 00:40:21;;;;;;;;;;;;;;;;;;5010293;28;20023;-61
2022/05/31 00:42:47;;;;;;;;;;;;;;;;;;5014633;28;20285;-60
2022/05/31 00:45:12;;;;;;;;;;;;;;;;;;5009242;28;20309;-60
2022/05/31 00:47:37;;;;;;;;;;;;;;;;;;5005915;28;19917;-60
2022/05/31 00:50:02;;;;;;;;;;;;;;;;;;5012335;28;19917;-60
2022/05/31 00:52:28;;;;;;;;;;;;;;;;;;5008660;28;19929;-59
2022/05/31 00:54:53;;;;;;;;;;;;;;;;;;5012568;28;20431;-59
2022/05/31 00:57:18;;;;;;;;;;;;;;;;;;5008413;28;20414;-59
2022/05/31 00:59:43;;;;;;;;;;;;;;;;;;5008483;28;20798;-59
2022/05/31 01:02:09;;;;;;;;;;;;;;;;;;5014983;28;19921;-60
2022/05/31 01:04:34;;;;;;;;;;;;;;;;;;5006956;28;19944;-60
2022/05/31 01:06:59;;;;;;;;;;;;;;;;;;5030094;28;19917;-60
2022/05/31 01:09:24;;;;;;;;;;;;;;;;;;5007913;28;19917;-60
2022/05/31 01:12:08;;;;;;;;;;;;;;;;;;5007140;28;19923;-60
2022/05/31 01:14:53;;;;;;;;;;;;;;;;;;5014736;28;19971;-60
2022/05/31 01:17:36;;;;;;;;;;;;;;;;;;5009038;28;19948;-60
2022/05/31 01:20:20;;;;;;;;;;;;;;;;;;5009127;28;19924;-60
2022/05/31 01:22:53;;;;;;;;;;;;;;;;;;5018843;28;19953;-60
2022/05/31 01:25:18;;;;;;;;;;;;;;;;;;5013080;28;20023;-60
2022/05/31 01:27:43;;;;;;;;;;;;;;;;;;5009570;28;19993;-58
2022/05/31 01:30:08;;;;;;;;;;;;;;;;;;5013337;28;19925;-60
2022/05/31 01:32:34;;;;;;;;;;;;;;;;;;5013015;28;19991;-61
2022/05/31 01:34:59;;;;;;;;;;;;;;;;;;5020466;28;19939;-61
2022/05/31 01:37:24;;;;;;;;;;;;;;;;;;5008692;28;19921;-60
2022/05/31 01:39:50;;;;;;;;;;;;;;;;;;5008141;28;19952;-60
2022/05/31 01:42:15;;;;;;;;;;;;;;;;;;5030938;28;20436;-60
2022/05/31 01:44:41;;;;;;;;;;;;;;;;;;5010478;28;20007;-60
2022/05/31 01:47:06;;;;;;;;;;;;;;;;;;5017969;28;19921;-60
2022/05/31 01:49:32;;;;;;;;;;;;;;;;;;5010817;28;20049;-60
2022/05/31 01:51:58;;;;;;;;;;;;;;;;;;5010545;28;20248;-60
2022/05/31 01:54:23;;;;;;;;;;;;;;;;;;5030750;28;19924;-60
2022/05/31 01:56:48;;;;;;;;;;;;;;;;;;5013659;28;19918;-60
2022/05/31 01:59:13;;;;;;;;;;;;;;;;;;5017269;28;20019;-60
2022/05/31 02:01:38;;;;;;;;;;;;;;;;;;5013640;28;19921;-60
2022/05/31 02:04:04;;;;;;;;;;;;;;;;;;5009356;28;19960;-60
2022/05/31 02:06:29;;;;;;;;;;;;;;;;;;5011769;28;19917;-60
2022/05/31 02:08:55;;;;;;;;;;;;;;;;;;5008600;28;20068;-60
2022/05/31 02:11:21;;;;;;;;;;;;;;;;;;5016438;28;19948;-60
2022/05/31 02:13:48;;;;;;;;;;;;;;;;;;5012072;28;19953;-60
2022/05/31 02:16:19;;;;;;;;;;;;;;;;;;5008535;28;20290;-60
2022/05/31 02:21:37;;;;;;;;;;;;;;;;;;5010818;28;19921;-60
2022/05/31 02:24:02;;;;;;;;;;;;;;;;;;5010241;28;20032;-60
2022/05/31 02:26:27;;;;;;;;;;;;;;;;;;5013343;28;20012;-60
2022/05/31 02:28:53;;;;;;;;;;;;;;;;;;5012828;28;19917;-60
2022/05/31 02:31:18;;;;;;;;;;;;;;;;;;5018645;28;19917;-60
2022/05/31 02:33:43;;;;;;;;;;;;;;;;;;5009075;28;20024;-60
2022/05/31 02:36:08;;;;;;;;;;;;;;;;;;5014199;28;19917;-60
2022/05/31 02:38:34;;;;;;;;;;;;;;;;;;5009211;28;19940;-60
2022/05/31 02:41:00;;;;;;;;;;;;;;;;;;4993023;28;19917;-59
2022/05/31 02:43:25;;;;;;;;;;;;;;;;;;5000836;28;19928;-59
2022/05/31 02:45:50;;;;;;;;;;;;;;;;;;5010137;28;19979;-60
2022/05/31 02:48:15;;;;;;;;;;;;;;;;;;5019440;28;19953;-60
2022/05/31 02:50:41;;;;;;;;;;;;;;;;;;5008123;28;19928;-60
2022/05/31 02:53:06;;;;;;;;;;;;;;;;;;5012949;28;19921;-60
2022/05/31 02:55:31;;;;;;;;;;;;;;;;;;5013773;28;20370;-60
2022/05/31 02:58:15;;;;;;;;;;;;;;;;;;5009133;28;19943;-59
2022/05/31 03:00:59;;;;;;;;;;;;;;;;;;5008145;28;19963;-59
2022/05/31 03:03:43;;;;;;;;;;;;;;;;;;5013965;28;19924;-60
2022/05/31 03:06:27;;;;;;;;;;;;;;;;;;5006363;28;20455;-60
2022/05/31 03:09:00;;;;;;;;;;;;;;;;;;5010971;28;19924;-60
2022/05/31 03:11:31;;;;;;;;;;;;;;;;;;5016557;28;20390;-60
2022/05/31 03:13:56;;;;;;;;;;;;;;;;;;5007780;28;19964;-60
2022/05/31 03:16:21;;;;;;;;;;;;;;;;;;5011665;28;19917;-60
2022/05/31 03:18:46;;;;;;;;;;;;;;;;;;5006116;28;19994;-59
2022/05/31 03:21:12;;;;;;;;;;;;;;;;;;5007650;28;20398;-59
2022/05/31 03:23:37;;;;;;;;;;;;;;;;;;5010887;28;20535;-60
2022/05/31 03:26:02;;;;;;;;;;;;;;;;;;5007717;28;19924;-60
2022/05/31 03:28:27;;;;;;;;;;;;;;;;;;5016388;28;20096;-59
2022/05/31 03:30:52;;;;;;;;;;;;;;;;;;5013357;28;19921;-61
2022/05/31 03:33:18;;;;;;;;;;;;;;;;;;5007699;28;19917;-59
2022/05/31 03:35:43;;;;;;;;;;;;;;;;;;5011549;28;20004;-59
2022/05/31 03:38:19;;;;;;;;;;;;;;;;;;5006749;28;19924;-60
2022/05/31 03:40:58;;;;;;;;;;;;;;;;;;5014846;28;19936;-60
2022/05/31 03:43:46;;;;;;;;;;;;;;;;;;5011368;28;19921;-60
2022/05/31 03:46:32;;;;;;;;;;;;;;;;;;5009263;28;19917;-60
2022/05/31 03:49:00;;;;;;;;;;;;;;;;;;5009344;28;20020;-60
2022/05/31 03:51:32;;;;;;;;;;;;;;;;;;5016833;28;19924;-59
2022/05/31 03:54:03;;;;;;;;;;;;;;;;;;5011733;28;20009;-60
2022/05/31 03:56:49;;;;;;;;;;;;;;;;;;5012042;28;20032;-60
2022/05/31 03:59:14;;;;;;;;;;;;;;;;;;5009490;28;19917;-60
2022/05/31 04:01:41;;;;;;;;;;;;;;;;;;5018823;28;19925;-59
2022/05/31 04:04:06;;;;;;;;;;;;;;;;;;5016196;28;19921;-59
2022/05/31 04:06:32;;;;;;;;;;;;;;;;;;5015640;28;19917;-60
2022/05/31 04:08:57;;;;;;;;;;;;;;;;;;5018772;28;20507;-59
2022/05/31 04:11:24;;;;;;;;;;;;;;;;;;5012269;28;19917;-59
2022/05/31 04:13:49;;;;;;;;;;;;;;;;;;5024848;28;19924;-59
2022/05/31 04:16:35;;;;;;;;;;;;;;;;;;5011821;28;19917;-59
2022/05/31 04:19:03;;;;;;;;;;;;;;;;;;4999252;28;20274;-60
2022/05/31 04:21:28;;;;;;;;;;;;;;;;;;5024907;28;20603;-60
2022/05/31 04:24:01;;;;;;;;;;;;;;;;;;5015946;28;20282;-60
2022/05/31 04:26:47;;;;;;;;;;;;;;;;;;4994371;28;19921;-60
2022/05/31 04:29:24;;;;;;;;;;;;;;;;;;5013114;28;19999;-60
2022/05/31 04:32:18;;;;;;;;;;;;;;;;;;5004369;28;19917;-61
2022/05/31 04:34:46;;;;;;;;;;;;;;;;;;5016209;28;19924;-60
2022/05/31 04:37:11;;;;;;;;;;;;;;;;;;5021732;28;19914;-60
2022/05/31 04:40:03;;;;;;;;;;;;;;;;;;5017131;28;19921;-60
2022/05/31 04:42:54;;;;;;;;;;;;;;;;;;5010501;28;20031;-60
2022/05/31 04:45:37;;;;;;;;;;;;;;;;;;5024869;28;19917;-60
2022/05/31 04:48:21;;;;;;;;;;;;;;;;;;5022212;28;19921;-60
2022/05/31 04:50:47;;;;;;;;;;;;;;;;;;5014701;28;19928;-60
2022/05/31 04:53:12;;;;;;;;;;;;;;;;;;5015646;28;19917;-60
2022/05/31 04:55:49;;;;;;;;;;;;;;;;;;5012429;28;20429;-61
2022/05/31 04:58:15;;;;;;;;;;;;;;;;;;5016249;28;19975;-60
2022/05/31 05:00:40;;;;;;;;;;;;;;;;;;5020359;28;20788;-60
2022/05/31 05:03:08;;;;;;;;;;;;;;;;;;5014291;28;19963;-60
2022/05/31 05:05:33;;;;;;;;;;;;;;;;;;5007423;28;19917;-60
2022/05/31 05:08:17;;;;;;;;;;;;;;;;;;5014114;28;20005;-60
2022/05/31 05:10:42;;;;;;;;;;;;;;;;;;5015500;28;20000;-61
2022/05/31 05:13:21;;;;;;;;;;;;;;;;;;5011800;28;19917;-60
2022/05/31 05:16:06;;;;;;;;;;;;;;;;;;5017743;28;19924;-60
2022/05/31 05:18:35;;;;;;;;;;;;;;;;;;5009417;28;19921;-60
2022/05/31 05:21:00;;;;;;;;;;;;;;;;;;5015979;28;19917;-60
2022/05/31 05:23:26;;;;;;;;;;;;;;;;;;5013487;28;20130;-60
2022/05/31 05:25:51;;;;;;;;;;;;;;;;;;5023253;28;19925;-60
2022/05/31 05:31:30;;;;;;;;;;;;;;;;;;5010439;28;19921;-60
2022/05/31 05:34:21;;;;;;;;;;;;;;;;;;4997025;28;20035;-60
2022/05/31 05:37:07;;;;;;;;;;;;;;;;;;5015245;28;19921;-60
2022/05/31 05:39:32;;;;;;;;;;;;;;;;;;5023029;28;20001;-60
2022/05/31 05:42:16;;;;;;;;;;;;;;;;;;5015854;28;20070;-61
2022/05/31 05:45:08;;;;;;;;;;;;;;;;;;5014628;28;19921;-61
2022/05/31 05:47:33;;;;;;;;;;;;;;;;;;5015133;28;19928;-60
2022/05/31 05:49:58;;;;;;;;;;;;;;;;;;5017922;28;19952;-61
2022/05/31 05:52:42;;;;;;;;;;;;;;;;;;5018901;28;20016;-61
2022/05/31 05:55:26;;;;;;;;;;;;;;;;;;5014997;28;20353;-61
2022/05/31 05:58:14;;;;;;;;;;;;;;;;;;5015127;28;20003;-60
2022/05/31 06:00:58;;;;;;;;;;;;;;;;;;4982637;28;20015;-60
2022/05/31 06:03:28;;;;;;;;;;;;;;;;;;5029655;28;19922;-61
2022/05/31 06:05:59;;;;;;;;;;;;;;;;;;5019596;28;20275;-60
2022/05/31 06:08:25;;;;;;;;;;;;;;;;;;5005813;28;19925;-60
2022/05/31 06:10:50;;;;;;;;;;;;;;;;;;5013049;28;19928;-61
2022/05/31 06:13:16;;;;;;;;;;;;;;;;;;5018758;28;19928;-61
2022/05/31 06:15:41;;;;;;;;;;;;;;;;;;5012211;28;19924;-61
2022/05/31 06:18:06;;;;;;;;;;;;;;;;;;5029833;28;19921;-62
2022/05/31 06:20:32;;;;;;;;;;;;;;;;;;5015877;28;19917;-62
2022/05/31 06:22:59;;;;;;;;;;;;;;;;;;5017247;28;19925;-61
2022/05/31 06:25:24;;;;;;;;;;;;;;;;;;5013954;28;19917;-61
2022/05/31 06:27:57;;;;;;;;;;;;;;;;;;5014557;28;19972;-61
2022/05/31 06:30:23;;;;;;;;;;;;;;;;;;5013613;28;19928;-61
2022/05/31 06:32:49;;;;;;;;;;;;;;;;;;5012971;28;19917;-62
2022/05/31 06:35:14;;;;;;;;;;;;;;;;;;5012931;28;19924;-61
2022/05/31 06:37:52;;;;;;;;;;;;;;;;;;5017664;28;19925;-61
2022/05/31 06:40:17;;;;;;;;;;;;;;;;;;5015306;28;19948;-61
2022/05/31 06:42:59;;;;;;;;;;;;;;;;;;5012017;28;19955;-61
2022/05/31 06:45:43;;;;;;;;;;;;;;;;;;5010492;28;19925;-61
2022/05/31 06:48:28;;;;;;;;;;;;;;;;;;5012855;28;20331;-61
2022/05/31 06:57:29;;;;;;;;;;;;;;;;;;5012570;28;20596;-60
2022/05/31 07:00:06;;;;;;;;;;;;;;;;;;5017312;28;20332;-61
2022/05/31 07:02:32;;;;;;;;;;;;;;;;;;5018015;28;19917;-61
2022/05/31 07:04:57;;;;;;;;;;;;;;;;;;5008325;28;19935;-61
2022/05/31 07:07:22;;;;;;;;;;;;;;;;;;5014171;28;19949;-61
2022/05/31 07:09:47;;;;;;;;;;;;;;;;;;5014744;28;19925;-61
2022/05/31 07:12:21;;;;;;;;;;;;;;;;;;5013296;28;19917;-61
2022/05/31 07:15:18;;;;;;;;;;;;;;;;;;4994388;28;20008;-61
2022/05/31 07:18:09;;;;;;;;;;;;;;;;;;5012853;28;20389;-61
2022/05/31 07:20:34;;;;;;;;;;;;;;;;;;5013368;28;20568;-60
2022/05/31 07:23:00;;;;;;;;;;;;;;;;;;5012831;28;20324;-61
2022/05/31 07:25:31;;;;;;;;;;;;;;;;;;5012033;28;19948;-61
2022/05/31 07:28:03;;;;;;;;;;;;;;;;;;5011576;28;19941;-61
2022/05/31 07:30:29;;;;;;;;;;;;;;;;;;5013198;28;20563;-62
2022/05/31 07:32:54;;;;;;;;;;;;;;;;;;5015926;28;20381;-61
2022/05/31 07:35:19;;;;;;;;;;;;;;;;;;5019377;28;19917;-61
2022/05/31 07:37:45;;;;;;;;;;;;;;;;;;5022458;28;19960;-61
2022/05/31 07:40:11;;;;;;;;;;;;;;;;;;5019263;28;19924;-61
2022/05/31 07:42:36;;;;;;;;;;;;;;;;;;4999320;28;20133;-61
2022/05/31 07:45:02;;;;;;;;;;;;;;;;;;5030642;28;19920;-61
2022/05/31 07:47:28;;;;;;;;;;;;;;;;;;5017716;28;19964;-61
2022/05/31 07:49:53;;;;;;;;;;;;;;;;;;5016901;28;19985;-61
2022/05/31 07:52:47;;;;;;;;;;;;;;;;;;5009328;28;19920;-61
2022/05/31 07:55:45;;;;;;;;;;;;;;;;;;5013521;28;19917;-61
2022/05/31 07:58:44;;;;;;;;;;;;;;;;;;5014558;28;19952;-61
2022/05/31 08:01:35;;;;;;;;;;;;;;;;;;5015957;28;19936;-61
2022/05/31 08:04:08;;;;;;;;;;;;;;;;;;5019456;28;20016;-62
2022/05/31 08:06:34;;;;;;;;;;;;;;;;;;5011814;28;20016;-62
2022/05/31 08:08:59;;;;;;;;;;;;;;;;;;5015197;28;20361;-62
2022/05/31 08:11:24;;;;;;;;;;;;;;;;;;5015337;28;20546;-61
2022/05/31 08:13:49;;;;;;;;;;;;;;;;;;5014986;28;20557;-61
2022/05/31 08:16:15;;;;;;;;;;;;;;;;;;5017078;28;19987;-61
2022/05/31 08:18:40;;;;;;;;;;;;;;;;;;5015895;28;20388;-61
2022/05/31 08:21:05;;;;;;;;;;;;;;;;;;5016296;28;20007;-61
2022/05/31 08:23:30;;;;;;;;;;;;;;;;;;5012966;28;20520;-62
2022/05/31 08:25:56;;;;;;;;;;;;;;;;;;5014625;28;19921;-63
2022/05/31 08:28:21;;;;;;;;;;;;;;;;;;5011974;28;20036;-62
2022/05/31 08:30:46;;;;;;;;;;;;;;;;;;5015130;28;20012;-62
2022/05/31 08:33:11;;;;;;;;;;;;;;;;;;5013376;28;19939;-62
2022/05/31 08:35:36;;;;;;;;;;;;;;;;;;5019242;28;20388;-61
2022/05/31 08:38:02;;;;;;;;;;;;;;;;;;4951814;28;1787663;-62
2022/05/31 08:40:27;;;;;;;;;;;;;;;;;;5014309;28;19921;-62
2022/05/31 08:42:52;;;;;;;;;;;;;;;;;;5013963;28;19924;-62
2022/05/31 08:45:17;;;;;;;;;;;;;;;;;;5013954;28;19917;-62
2022/05/31 08:47:43;;;;;;;;;;;;;;;;;;5014361;28;20535;-61
2022/05/31 08:52:52;;;;;;;;;;;;;;;;;;5014914;28;20651;-63
2022/05/31 08:58:01;;;;;;;;;;;;;;;;;;5016318;28;19965;-60
2022/05/31 09:00:26;;;;;;;;;;;;;;;;;;5014178;28;20058;-61
2022/05/31 09:02:51;;;;;;;;;;;;;;;;;;5017135;28;20399;-61
2022/05/31 09:05:16;;;;;;;;;;;;;;;;;;5015059;28;19921;-61
2022/05/31 09:07:42;;;;;;;;;;;;;;;;;;5013623;28;19922;-61
2022/05/31 09:10:07;;;;;;;;;;;;;;;;;;5014544;28;20063;-61
2022/05/31 09:12:32;;;;;;;;;;;;;;;;;;5014320;28;20006;-62
2022/05/31 09:15:01;;;;;;;;;;;;;;;;;;5014688;28;20046;-61
2022/05/31 09:17:26;;;;;;;;;;;;;;;;;;5016037;28;20370;-61
2022/05/31 09:19:52;;;;;;;;;;;;;;;;;;5014222;28;20004;-61
2022/05/31 09:22:17;;;;;;;;;;;;;;;;;;5013071;28;19928;-62
2022/05/31 09:24:42;;;;;;;;;;;;;;;;;;5018439;28;19917;-62
2022/05/31 09:27:07;;;;;;;;;;;;;;;;;;5016404;28;19921;-62
2022/05/31 09:29:33;;;;;;;;;;;;;;;;;;5015299;28;19975;-61
2022/05/31 09:31:59;;;;;;;;;;;;;;;;;;5014767;28;19917;-62
2022/05/31 09:34:24;;;;;;;;;;;;;;;;;;5014370;28;19980;-62
2022/05/31 09:36:49;;;;;;;;;;;;;;;;;;5014882;28;19975;-62
2022/05/31 09:39:14;;;;;;;;;;;;;;;;;;5012028;28;19929;-61
2022/05/31 09:41:40;;;;;;;;;;;;;;;;;;5030462;28;19917;-62
2022/05/31 09:44:06;;;;;;;;;;;;;;;;;;5014565;28;19917;-62
2022/05/31 09:46:31;;;;;;;;;;;;;;;;;;5013068;28;19918;-63
2022/05/31 09:48:56;;;;;;;;;;;;;;;;;;5018889;28;19917;-62
2022/05/31 09:51:21;;;;;;;;;;;;;;;;;;5014688;28;19945;-62
2022/05/31 09:57:06;;;;;;;;;;;;;;;;;;5013942;28;19924;-61
2022/05/31 09:59:57;;;;;;;;;;;;;;;;;;5005985;28;19983;-62
2022/05/31 10:02:46;;;;;;;;;;;;;;;;;;5009749;28;20309;-61
2022/05/31 10:05:11;;;;;;;;;;;;;;;;;;5010307;28;20720;-61
2022/05/31 10:07:37;;;;;;;;;;;;;;;;;;5013685;28;19943;-62
2022/05/31 10:10:03;;;;;;;;;;;;;;;;;;5013148;28;19925;-62
2022/05/31 10:12:31;;;;;;;;;;;;;;;;;;5013749;28;20103;-62
2022/05/31 10:14:56;;;;;;;;;;;;;;;;;;5017191;28;19925;-62
2022/05/31 10:17:21;;;;;;;;;;;;;;;;;;5014856;28;19925;-62
2022/05/31 10:19:46;;;;;;;;;;;;;;;;;;5025032;28;20356;-62
2022/05/31 10:22:12;;;;;;;;;;;;;;;;;;5010661;28;19917;-61
2022/05/31 10:24:55;;;;;;;;;;;;;;;;;;5024391;28;19924;-61
2022/05/31 10:27:49;;;;;;;;;;;;;;;;;;5013311;28;19944;-63
2022/05/31 10:30:35;;;;;;;;;;;;;;;;;;5011847;28;19931;-63
2022/05/31 10:33:13;;;;;;;;;;;;;;;;;;5012214;28;19964;-62
2022/05/31 10:35:39;;;;;;;;;;;;;;;;;;5010889;28;20602;-63
2022/05/31 10:38:04;;;;;;;;;;;;;;;;;;4993224;28;20317;-62
2022/05/31 10:40:29;;;;;;;;;;;;;;;;;;5003352;28;19924;-61
2022/05/31 10:42:54;;;;;;;;;;;;;;;;;;5005014;28;19967;-62
2022/05/31 10:45:20;;;;;;;;;;;;;;;;;;5001264;28;19917;-62
2022/05/31 10:47:45;;;;;;;;;;;;;;;;;;5002649;28;19921;-61
2022/05/31 10:50:10;;;;;;;;;;;;;;;;;;5002832;28;19933;-62
2022/05/31 10:52:35;;;;;;;;;;;;;;;;;;5007262;28;20335;-61
2022/05/31 10:55:00;;;;;;;;;;;;;;;;;;5007824;28;20420;-61
2022/05/31 10:57:27;;;;;;;;;;;;;;;;;;5001984;28;19932;-63
2022/05/31 10:59:52;;;;;;;;;;;;;;;;;;5001857;28;19939;-62
2022/05/31 11:02:17;;;;;;;;;;;;;;;;;;5002293;28;19956;-63
2022/05/31 11:04:43;;;;;;;;;;;;;;;;;;5006408;28;19961;-63
2022/05/31 11:07:08;;;;;;;;;;;;;;;;;;5000592;28;19948;-62
2022/05/31 11:12:18;;;;;;;;;;;;;;;;;;5003839;28;19931;-60
2022/05/31 11:14:43;;;;;;;;;;;;;;;;;;5003173;28;19914;-60
2022/05/31 11:17:08;;;;;;;;;;;;;;;;;;5001019;28;20352;-61
2022/05/31 11:19:34;;;;;;;;;;;;;;;;;;5004000;28;19918;-61
2022/05/31 11:21:59;;;;;;;;;;;;;;;;;;5002315;28;20601;-61
2022/05/31 11:24:24;;;;;;;;;;;;;;;;;;5002853;28;19936;-61
2022/05/31 11:26:49;;;;;;;;;;;;;;;;;;5003419;28;19970;-61
2022/05/31 11:29:14;;;;;;;;;;;;;;;;;;5004705;28;19921;-60
2022/05/31 11:31:40;;;;;;;;;;;;;;;;;;5001708;28;20374;-61
2022/05/31 11:34:05;;;;;;;;;;;;;;;;;;5004762;28;20044;-61
2022/05/31 11:36:30;;;;;;;;;;;;;;;;;;5002535;28;19917;-61
2022/05/31 11:38:55;;;;;;;;;;;;;;;;;;5000986;28;20601;-61
2022/05/31 11:41:21;;;;;;;;;;;;;;;;;;5000679;28;19920;-61
2022/05/31 11:43:46;;;;;;;;;;;;;;;;;;5003415;28;19924;-61
2022/05/31 11:46:11;;;;;;;;;;;;;;;;;;5001330;28;19921;-62
2022/05/31 11:48:36;;;;;;;;;;;;;;;;;;4999752;28;19928;-61
2022/05/31 11:51:02;;;;;;;;;;;;;;;;;;5004650;28;19921;-61
2022/05/31 11:53:27;;;;;;;;;;;;;;;;;;5003735;28;20824;-61
2022/05/31 11:55:54;;;;;;;;;;;;;;;;;;5004609;28;19918;-62
2022/05/31 11:58:19;;;;;;;;;;;;;;;;;;5001991;28;19956;-62
2022/05/31 12:00:44;;;;;;;;;;;;;;;;;;4999402;28;20035;-62
2022/05/31 12:03:09;;;;;;;;;;;;;;;;;;5003106;28;19917;-62
2022/05/31 12:05:35;;;;;;;;;;;;;;;;;;5004772;28;20449;-62
2022/05/31 12:08:00;;;;;;;;;;;;;;;;;;5004918;28;19948;-62
2022/05/31 12:10:25;;;;;;;;;;;;;;;;;;5011442;28;20313;-62
2022/05/31 12:12:50;;;;;;;;;;;;;;;;;;5006308;28;20615;-62
2022/05/31 12:15:18;;;;;;;;;;;;;;;;;;5006557;28;19943;-62
2022/05/31 12:17:44;;;;;;;;;;;;;;;;;;5006300;28;19917;-62
2022/05/31 12:20:09;;;;;;;;;;;;;;;;;;5005609;28;20061;-62
2022/05/31 12:22:34;;;;;;;;;;;;;;;;;;5014087;28;19922;-62
2022/05/31 12:24:59;;;;;;;;;;;;;;;;;;5024425;28;19917;-62
2022/05/31 12:27:25;;;;;;;;;;;;;;;;;;5018602;28;19996;-62
2022/05/31 12:29:50;;;;;;;;;;;;;;;;;;5019068;28;20052;-62
2022/05/31 12:32:15;;;;;;;;;;;;;;;;;;5020243;28;19917;-62
2022/05/31 12:34:41;;;;;;;;;;;;;;;;;;5018636;28;19917;-62
2022/05/31 12:37:06;;;;;;;;;;;;;;;;;;5017342;28;20003;-62
2022/05/31 12:39:33;;;;;;;;;;;;;;;;;;5017617;28;19944;-63
2022/05/31 12:41:58;;;;;;;;;;;;;;;;;;5020658;28;20052;-62
2022/05/31 12:44:23;;;;;;;;;;;;;;;;;;5016811;28;20466;-63
2022/05/31 12:46:48;;;;;;;;;;;;;;;;;;5016557;28;19987;-63
2022/05/31 12:49:14;;;;;;;;;;;;;;;;;;5008168;28;19921;-63
2022/05/31 12:51:39;;;;;;;;;;;;;;;;;;5009343;28;19961;-63
2022/05/31 12:54:04;;;;;;;;;;;;;;;;;;4996874;28;19918;-62
2022/05/31 12:56:29;;;;;;;;;;;;;;;;;;4981620;28;20024;-62
2022/05/31 12:58:54;;;;;;;;;;;;;;;;;;5000561;28;19917;-62
2022/05/31 13:01:20;;;;;;;;;;;;;;;;;;5005816;28;19924;-62
2022/05/31 13:03:45;;;;;;;;;;;;;;;;;;5019701;28;19917;-62
2022/05/31 13:06:10;;;;;;;;;;;;;;;;;;5013617;28;19953;-62
2022/05/31 13:08:35;;;;;;;;;;;;;;;;;;5015212;28;19983;-62
2022/05/31 13:21:56;;;;;;;;;;;;;;;;;;5014780;28;20706;-62
2022/05/31 13:24:21;;;;;;;;;;;;;;;;;;5015275;28;19917;-62
2022/05/31 13:26:47;;;;;;;;;;;;;;;;;;5008933;28;20370;-63
2022/05/31 13:29:13;;;;;;;;;;;;;;;;;;5020577;28;19968;-62
2022/05/31 13:31:38;;;;;;;;;;;;;;;;;;5012651;28;20305;-62
2022/05/31 13:34:03;;;;;;;;;;;;;;;;;;5015362;28;20400;-63
2022/05/31 13:36:28;;;;;;;;;;;;;;;;;;5014946;28;20468;-63
2022/05/31 13:38:54;;;;;;;;;;;;;;;;;;5013790;28;19988;-63
2022/05/31 13:41:19;;;;;;;;;;;;;;;;;;5014788;28;19917;-65
2022/05/31 13:43:44;;;;;;;;;;;;;;;;;;5014639;28;19924;-64
2022/05/31 13:46:10;;;;;;;;;;;;;;;;;;5015094;28;19997;-62
2022/05/31 13:48:36;;;;;;;;;;;;;;;;;;5013193;28;20450;-61
2022/05/31 13:51:01;;;;;;;;;;;;;;;;;;5017921;28;20007;-61
2022/05/31 13:53:27;;;;;;;;;;;;;;;;;;5014855;28;19923;-62
2022/05/31 13:55:52;;;;;;;;;;;;;;;;;;5013501;28;19924;-64
2022/05/31 13:58:17;;;;;;;;;;;;;;;;;;5010203;28;19922;-62
2022/05/31 14:00:42;;;;;;;;;;;;;;;;;;4989937;28;19925;-62
2022/05/31 14:03:07;;;;;;;;;;;;;;;;;;4997667;28;19929;-63
2022/05/31 14:05:33;;;;;;;;;;;;;;;;;;5000560;28;20405;-62
2022/05/31 14:07:58;;;;;;;;;;;;;;;;;;4998031;28;20013;-63
2022/05/31 14:10:23;;;;;;;;;;;;;;;;;;5007471;28;19921;-62
2022/05/31 14:12:48;;;;;;;;;;;;;;;;;;5016686;28;19968;-63
2022/05/31 14:15:14;;;;;;;;;;;;;;;;;;5015696;28;20384;-63
2022/05/31 14:17:39;;;;;;;;;;;;;;;;;;5013258;28;20285;-63
2022/05/31 14:20:05;;;;;;;;;;;;;;;;;;5014187;28;19917;-64
2022/05/31 14:22:31;;;;;;;;;;;;;;;;;;5011350;28;19917;-63
2022/05/31 14:24:56;;;;;;;;;;;;;;;;;;5004064;28;19918;-64
2022/05/31 14:27:21;;;;;;;;;;;;;;;;;;5013561;28;19921;-63
2022/05/31 14:29:46;;;;;;;;;;;;;;;;;;5012506;28;20040;-65
2022/05/31 14:32:11;;;;;;;;;;;;;;;;;;5012276;28;19986;-63
2022/05/31 14:34:37;;;;;;;;;;;;;;;;;;5015123;28;20568;-62
2022/05/31 14:37:02;;;;;;;;;;;;;;;;;;5004089;28;19918;-63
2022/05/31 14:39:27;;;;;;;;;;;;;;;;;;5006269;28;20004;-63
2022/05/31 14:41:55;;;;;;;;;;;;;;;;;;5011709;28;19920;-64
2022/05/31 14:44:20;;;;;;;;;;;;;;;;;;5014073;28;20644;-63
2022/05/31 14:46:46;;;;;;;;;;;;;;;;;;5012246;28;19964;-62
2022/05/31 14:49:11;;;;;;;;;;;;;;;;;;5009260;28;19921;-63
2022/05/31 14:51:37;;;;;;;;;;;;;;;;;;5013589;28;19983;-63
2022/05/31 14:54:02;;;;;;;;;;;;;;;;;;5016609;28;19913;-62
2022/05/31 14:56:27;;;;;;;;;;;;;;;;;;5014395;28;20352;-64
2022/05/31 14:58:52;;;;;;;;;;;;;;;;;;5013359;28;19917;-64
2022/05/31 15:01:17;;;;;;;;;;;;;;;;;;5013634;28;20721;-64
2022/05/31 15:03:43;;;;;;;;;;;;;;;;;;5014684;28;19917;-63
2022/05/31 15:06:08;;;;;;;;;;;;;;;;;;5011625;28;19921;-64
2022/05/31 15:08:33;;;;;;;;;;;;;;;;;;5010018;28;19975;-63
2022/05/31 15:18:56;;;;;;;;;;;;;;;;;;5016348;28;20392;-63
2022/05/31 15:19:22;;;;;;;;;;;;;;;;;;5011890;28;19917;-61
2022/05/31 15:21:48;;;;;;;;;;;;;;;;;;5013172;28;19917;-62
2022/05/31 15:24:14;;;;;;;;;;;;;;;;;;5011052;28;20004;-62
2022/05/31 15:26:39;;;;;;;;;;;;;;;;;;5009389;28;20004;-62
2022/05/31 15:29:04;;;;;;;;;;;;;;;;;;5011702;28;19959;-63
2022/05/31 15:31:29;;;;;;;;;;;;;;;;;;5011646;28;19924;-64
2022/05/31 15:33:55;;;;;;;;;;;;;;;;;;5012719;28;20274;-63
2022/05/31 15:36:20;;;;;;;;;;;;;;;;;;5013942;28;19917;-64
2022/05/31 15:38:45;;;;;;;;;;;;;;;;;;5012461;28;19944;-63
2022/05/31 15:41:10;;;;;;;;;;;;;;;;;;5010697;28;20289;-61
2022/05/31 15:43:55;;;;;;;;;;;;;;;;;;5005517;28;19921;-63
2022/05/31 15:46:20;;;;;;;;;;;;;;;;;;5003974;28;19917;-62
2022/05/31 15:48:45;;;;;;;;;;;;;;;;;;5001610;28;19936;-62
2022/05/31 15:51:10;;;;;;;;;;;;;;;;;;4999866;28;19963;-62
2022/05/31 15:53:36;;;;;;;;;;;;;;;;;;4997227;28;19917;-61
2022/05/31 15:56:02;;;;;;;;;;;;;;;;;;5009487;28;19959;-61
2022/05/31 15:58:27;;;;;;;;;;;;;;;;;;5004855;28;19968;-61
2022/05/31 16:00:52;;;;;;;;;;;;;;;;;;5005956;28;19960;-61
2022/05/31 16:03:17;;;;;;;;;;;;;;;;;;5005847;28;19921;-61
2022/05/31 16:05:43;;;;;;;;;;;;;;;;;;5004162;28;19913;-61
2022/05/31 16:08:08;;;;;;;;;;;;;;;;;;5008547;28;20012;-61
2022/05/31 16:10:33;;;;;;;;;;;;;;;;;;5002302;28;19932;-62
2022/05/31 16:12:58;;;;;;;;;;;;;;;;;;5017052;28;19922;-61
2022/05/31 16:15:24;;;;;;;;;;;;;;;;;;5011982;28;19917;-62
2022/05/31 16:17:49;;;;;;;;;;;;;;;;;;5002138;28;19928;-62
2022/05/31 16:20:14;;;;;;;;;;;;;;;;;;5010499;28;19917;-61
2022/05/31 16:22:39;;;;;;;;;;;;;;;;;;5004434;28;20364;-61
2022/05/31 16:25:05;;;;;;;;;;;;;;;;;;5004560;28;20503;-61
2022/05/31 16:27:30;;;;;;;;;;;;;;;;;;5008534;28;20325;-61
2022/05/31 16:29:55;;;;;;;;;;;;;;;;;;5007109;28;20016;-61
2022/05/31 16:32:22;;;;;;;;;;;;;;;;;;5007031;28;19917;-61
2022/05/31 16:34:47;;;;;;;;;;;;;;;;;;5002306;28;19921;-62
2022/05/31 16:42:40;;;;;;;;;;;;;;;;;;5008002;28;20298;-60
2022/05/31 16:45:06;;;;;;;;;;;;;;;;;;5003561;28;20630;-61
2022/05/31 16:47:32;;;;;;;;;;;;;;;;;;5015414;28;20376;-61
2022/05/31 16:49:57;;;;;;;;;;;;;;;;;;5008094;28;19926;-61
2022/05/31 16:52:22;;;;;;;;;;;;;;;;;;5013774;28;19960;-61
2022/05/31 16:54:47;;;;;;;;;;;;;;;;;;5009549;28;19968;-61
2022/05/31 16:57:13;;;;;;;;;;;;;;;;;;5006114;28;20278;-61
2022/05/31 16:59:39;;;;;;;;;;;;;;;;;;5015001;28;19988;-61
2022/05/31 17:02:04;;;;;;;;;;;;;;;;;;5005653;28;19920;-61
2022/05/31 17:04:30;;;;;;;;;;;;;;;;;;5015017;28;19921;-60
2022/05/31 17:15:07;;;;;;;;;;;;;;;;;;5008999;28;19964;-61
2022/05/31 17:17:32;;;;;;;;;;;;;;;;;;5012102;28;20075;-61
2022/05/31 17:20:16;;;;;;;;;;;;;;;;;;5012547;28;19924;-61
2022/05/31 17:22:41;;;;;;;;;;;;;;;;;;5006115;28;19948;-61
2022/05/31 17:25:07;;;;;;;;;;;;;;;;;;5008886;28;19918;-61
2022/05/31 17:27:32;;;;;;;;;;;;;;;;;;5009456;28;19918;-61
2022/05/31 17:29:58;;;;;;;;;;;;;;;;;;5008813;28;19921;-61
2022/05/31 17:32:23;;;;;;;;;;;;;;;;;;5012869;28;19917;-61
2022/05/31 17:34:48;;;;;;;;;;;;;;;;;;5009131;28;19921;-61
2022/05/31 17:37:13;;;;;;;;;;;;;;;;;;5009792;28;21193;-61
2022/05/31 17:39:39;;;;;;;;;;;;;;;;;;5013343;28;20301;-61
2022/05/31 17:42:05;;;;;;;;;;;;;;;;;;5006223;28;20366;-61
2022/05/31 17:44:32;;;;;;;;;;;;;;;;;;5012058;28;19924;-60
2022/05/31 17:46:57;;;;;;;;;;;;;;;;;;5009039;28;20023;-60